createdAt,value
2024-01-15T00:00:12.794Z,99082.81
2024-01-15T00:02:39.564Z,99112.09
2024-01-15T00:05:08.080Z,99088.66
2024-01-15T00:07:34.622Z,99055.78
2024-01-15T00:10:01.198Z,99092.88
2024-01-15T00:12:28.224Z,99108.53
2024-01-15T00:14:55.531Z,99094.53
2024-01-15T00:17:22.165Z,99074.34
2024-01-15T00:19:49.173Z,99082.75
2024-01-15T00:22:15.761Z,99078.38
2024-01-15T00:24:43.035Z,99084.19
2024-01-15T00:27:09.642Z,99071.97
2024-01-15T00:29:36.203Z,99058.78
2024-01-15T00:32:02.877Z,99032.34
2024-01-15T00:34:29.662Z,99066.00
2024-01-15T00:36:56.251Z,99061.63
2024-01-15T00:39:23.084Z,99056.03
2024-01-15T00:41:49.737Z,99060.44
2024-01-15T00:44:16.258Z,99053.22
2024-01-15T00:46:47.146Z,99050.63
2024-01-15T00:49:17.545Z,99008.97
2024-01-15T00:51:44.361Z,99042.03
2024-01-15T00:54:11.118Z,99013.16
2024-01-15T00:56:38.132Z,99030.03
2024-01-15T00:59:04.777Z,99038.44
2024-01-15T01:01:31.336Z,99026.03
2024-01-15T01:03:58.540Z,99029.63
2024-01-15T01:06:26.007Z,99023.44
2024-01-15T01:08:54.632Z,99022.81
2024-01-15T01:11:21.394Z,99032.19
2024-01-15T01:13:47.846Z,99027.59
2024-01-15T01:16:14.377Z,98996.69
2024-01-15T01:18:41.086Z,99017.88
2024-01-15T01:21:07.783Z,98991.16
2024-01-15T01:23:34.316Z,99022.44
2024-01-15T01:26:01.672Z,99020.59
2024-01-15T01:28:29.115Z,99032.94
2024-01-15T01:30:55.639Z,99030.56
2024-01-15T01:33:22.274Z,99014.97
2024-01-15T01:35:48.935Z,99024.00
2024-01-15T01:38:15.393Z,99020.78
2024-01-15T01:40:44.280Z,98998.06
2024-01-15T01:43:11.462Z,99030.16
2024-01-15T01:45:38.089Z,99023.00
2024-01-15T01:48:05.474Z,99035.78
2024-01-15T01:50:33.159Z,99022.25
2024-01-15T01:53:01.145Z,98993.97
2024-01-15T01:55:30.472Z,99025.22
2024-01-15T01:57:57.447Z,99013.59
2024-01-15T02:00:24.144Z,99018.22
2024-01-15T02:02:50.758Z,98984.16
2024-01-15T02:05:21.493Z,99012.22
2024-01-15T02:07:48.353Z,99013.03
2024-01-15T02:10:15.200Z,99000.44
2024-01-15T02:12:41.831Z,99008.00
2024-01-15T02:15:08.703Z,98986.38
2024-01-15T02:17:35.385Z,99012.63
2024-01-15T02:20:02.389Z,98985.16
2024-01-15T02:22:28.845Z,98960.13
2024-01-15T02:24:55.352Z,98981.34
2024-01-15T02:27:22.014Z,98985.31
2024-01-15T02:29:49.682Z,98986.53
2024-01-15T02:32:16.257Z,98960.41
2024-01-15T02:34:42.991Z,99000.25
2024-01-15T02:37:09.596Z,99000.44
2024-01-15T02:39:36.065Z,98970.78
2024-01-15T02:42:02.811Z,98989.47
2024-01-15T02:44:29.332Z,98982.50
2024-01-15T02:46:55.817Z,98950.66
2024-01-15T02:49:22.366Z,98984.28
2024-01-15T02:51:49.163Z,98991.44
2024-01-15T02:54:15.653Z,98970.91
2024-01-15T02:56:42.166Z,98967.91
2024-01-15T02:59:08.895Z,98965.75
2024-01-15T03:01:35.372Z,98932.88
2024-01-15T03:04:04.732Z,98963.09
2024-01-15T03:06:31.468Z,98964.09
2024-01-15T03:08:57.962Z,98959.13
2024-01-15T03:11:24.504Z,98931.28
2024-01-15T03:13:50.984Z,98963.16
2024-01-15T03:16:17.448Z,98957.34
2024-01-15T03:18:46.587Z,98952.94
2024-01-15T03:21:13.226Z,98949.38
2024-01-15T03:23:39.729Z,98966.38
2024-01-15T03:26:06.302Z,98966.78
2024-01-15T03:28:32.892Z,98963.03
2024-01-15T03:30:59.682Z,98967.81
2024-01-15T03:33:26.623Z,98970.59
2024-01-15T03:35:53.167Z,98969.03
2024-01-15T03:38:19.837Z,98960.66
2024-01-15T03:40:46.438Z,98950.25
2024-01-15T03:43:13.038Z,98921.03
2024-01-15T03:45:39.767Z,98951.66
2024-01-15T03:48:06.661Z,98910.25
2024-01-15T03:50:33.225Z,98939.13
2024-01-15T03:52:59.729Z,98920.22
2024-01-15T03:55:26.261Z,98912.84
2024-01-15T03:57:52.766Z,98935.72
2024-01-15T04:00:19.771Z,98945.88
2024-01-15T04:02:46.279Z,98936.28
2024-01-15T04:05:12.813Z,98943.50
2024-01-15T04:07:39.290Z,98928.72
2024-01-15T04:10:06.159Z,98901.91
2024-01-15T04:12:32.826Z,98920.75
2024-01-15T04:14:59.497Z,98915.56
2024-01-15T04:17:26.047Z,98919.75
2024-01-15T04:19:52.633Z,98908.97
2024-01-15T04:22:19.276Z,98898.13
2024-01-15T04:24:45.894Z,98918.16
2024-01-15T04:27:12.577Z,98909.19
2024-01-15T04:29:41.650Z,98895.53
2024-01-15T04:32:08.513Z,98903.97
2024-01-15T04:34:35.171Z,98912.22
2024-01-15T04:37:01.737Z,98908.16
2024-01-15T04:39:28.419Z,98892.78
2024-01-15T04:41:55.034Z,98924.63
2024-01-15T04:44:21.643Z,98901.75
2024-01-15T04:46:48.117Z,98895.97
2024-01-15T04:49:14.759Z,98904.00
2024-01-15T04:51:41.376Z,98892.19
2024-01-15T04:54:10.096Z,98900.41
2024-01-15T04:56:36.696Z,98900.81
2024-01-15T04:59:03.309Z,98910.41
2024-01-15T05:01:33.886Z,98904.59
2024-01-15T05:04:00.861Z,98899.63
2024-01-15T05:06:27.585Z,98894.22
2024-01-15T05:08:54.154Z,98895.81
2024-01-15T05:11:20.850Z,98891.41
2024-01-15T05:13:47.412Z,98888.00
2024-01-15T05:16:13.925Z,98893.03
2024-01-15T05:18:40.545Z,98886.44
2024-01-15T05:21:07.241Z,98894.03
2024-01-15T05:23:33.772Z,98888.03
2024-01-15T05:26:00.302Z,98864.41
2024-01-15T05:28:26.945Z,98894.84
2024-01-15T05:30:53.968Z,98892.84
2024-01-15T05:33:20.650Z,98872.03
2024-01-15T05:35:47.481Z,98887.84
2024-01-15T05:38:14.016Z,98885.25
2024-01-15T05:40:40.431Z,98882.03
2024-01-15T05:43:07.089Z,98880.22
2024-01-15T05:45:35.940Z,98855.56
2024-01-15T05:48:02.698Z,98870.78
2024-01-15T05:50:29.341Z,98862.97
2024-01-15T05:52:55.824Z,98888.00
2024-01-15T05:55:22.333Z,98879.41
2024-01-15T05:57:49.074Z,98879.63
2024-01-15T06:00:16.205Z,98886.25
2024-01-15T06:02:42.877Z,98883.66
2024-01-15T06:05:09.368Z,98872.25
2024-01-15T06:07:37.305Z,98881.88
2024-01-15T06:10:05.765Z,98870.66
2024-01-15T06:12:33.463Z,98884.88
2024-01-15T06:15:01.072Z,98880.84
2024-01-15T06:17:27.675Z,98878.47
2024-01-15T06:19:54.369Z,98864.84
2024-01-15T06:22:21.263Z,98874.44
2024-01-15T06:24:47.817Z,98844.63
2024-01-15T06:27:14.392Z,98876.44
2024-01-15T06:29:50.394Z,98866.63
2024-01-15T06:32:20.240Z,98869.00
2024-01-15T06:34:46.758Z,98873.41
2024-01-15T06:37:13.425Z,98867.63
2024-01-15T06:39:40.009Z,98863.81
2024-01-15T06:42:06.653Z,98868.44
2024-01-15T06:44:33.311Z,98875.63
2024-01-15T06:47:03.518Z,98872.44
2024-01-15T06:49:30.998Z,98868.66
2024-01-15T06:51:58.031Z,98862.03
2024-01-15T06:54:24.936Z,98867.25
2024-01-15T06:56:51.707Z,98877.47
2024-01-15T06:59:20.214Z,98869.63
2024-01-15T07:01:47.542Z,98873.25
2024-01-15T07:04:14.546Z,98867.88
2024-01-15T07:06:41.325Z,98866.06
2024-01-15T07:09:09.132Z,98876.06
2024-01-15T07:11:35.644Z,98859.66
2024-01-15T07:14:02.086Z,98881.63
2024-01-15T07:16:36.620Z,98882.88
2024-01-15T07:19:05.165Z,98876.84
2024-01-15T07:21:31.838Z,98892.84
2024-01-15T07:23:58.382Z,98900.06
2024-01-15T07:26:24.913Z,98914.47
2024-01-15T07:28:51.849Z,98908.84
2024-01-15T07:31:22.665Z,98937.47
2024-01-15T07:33:49.411Z,98932.66
2024-01-15T07:36:16.130Z,98932.66
2024-01-15T07:38:42.920Z,98952.47
2024-01-15T07:41:09.513Z,98932.84
2024-01-15T07:43:36.278Z,98948.44
2024-01-15T07:46:06.079Z,98943.06
2024-01-15T07:48:32.745Z,98940.84
2024-01-15T07:50:59.349Z,98918.03
2024-01-15T07:53:25.884Z,98953.44
2024-01-15T07:55:52.386Z,98939.66
2024-01-15T07:58:18.969Z,98926.63
2024-01-15T08:00:45.977Z,98953.25
2024-01-15T08:03:14.008Z,98943.03
2024-01-15T08:05:40.959Z,98954.22
2024-01-15T08:08:07.728Z,98954.88
2024-01-15T08:10:36.957Z,98958.09
2024-01-15T08:13:03.545Z,98950.84
2024-01-15T08:15:31.722Z,98944.84
2024-01-15T08:17:58.837Z,98938.66
2024-01-15T08:20:25.754Z,98941.66
2024-01-15T08:22:52.959Z,98937.66
2024-01-15T08:25:19.603Z,98937.47
2024-01-15T08:27:46.240Z,98915.66
2024-01-15T08:30:13.449Z,98904.09
2024-01-15T08:32:43.395Z,98940.50
2024-01-15T08:35:10.552Z,98922.09
2024-01-15T08:37:37.405Z,98929.28
2024-01-15T08:40:04.903Z,98923.69
2024-01-15T08:42:31.465Z,98931.31
2024-01-15T08:44:58.172Z,98940.09
2024-01-15T08:47:24.761Z,98944.91
2024-01-15T08:49:51.378Z,98953.50
2024-01-15T08:52:17.882Z,98968.69
2024-01-15T08:54:44.417Z,98962.47
2024-01-15T08:57:12.786Z,98971.91
2024-01-15T08:59:39.918Z,98969.88
2024-01-15T09:02:06.708Z,98977.28
2024-01-15T09:04:33.287Z,98958.44
2024-01-15T09:06:59.951Z,98979.50
2024-01-15T09:09:26.447Z,98984.09
2024-01-15T09:11:53.087Z,98973.69
2024-01-15T09:14:30.578Z,98971.28
2024-01-15T09:17:04.551Z,98978.88
2024-01-15T09:19:31.189Z,98987.31
2024-01-15T09:21:58.714Z,98975.69
2024-01-15T09:24:27.935Z,98993.72
2024-01-15T09:26:55.590Z,98982.69
2024-01-15T09:29:22.188Z,98992.31
2024-01-15T09:31:48.785Z,98968.28
2024-01-15T09:34:16.122Z,98968.50
2024-01-15T09:36:43.622Z,98974.31
2024-01-15T09:39:12.218Z,98999.38
2024-01-15T09:41:39.560Z,99004.94
2024-01-15T09:44:06.723Z,99005.94
2024-01-15T09:46:33.979Z,99001.94
2024-01-15T09:49:01.872Z,98985.72
2024-01-15T09:51:32.677Z,99002.53
2024-01-15T09:53:59.371Z,98997.53
2024-01-15T09:56:25.858Z,98991.94
2024-01-15T09:58:55.996Z,98991.13
2024-01-15T10:01:23.941Z,98989.75
2024-01-15T10:03:51.738Z,98981.34
2024-01-15T10:06:22.472Z,98974.13
2024-01-15T10:08:52.401Z,98945.69
2024-01-15T10:11:19.172Z,98970.53
2024-01-15T10:13:50.492Z,98956.31
2024-01-15T10:16:17.737Z,98971.53
2024-01-15T10:18:44.333Z,98987.78
2024-01-15T10:21:11.004Z,98993.16
2024-01-15T10:23:37.690Z,98983.97
2024-01-15T10:26:04.742Z,98976.19
2024-01-15T10:28:32.766Z,98953.75
2024-01-15T10:31:00.693Z,98972.97
2024-01-15T10:33:28.140Z,98944.94
2024-01-15T10:35:58.761Z,98974.19
2024-01-15T10:38:25.999Z,98971.97
2024-01-15T10:40:57.350Z,98952.56
2024-01-15T10:43:28.148Z,98944.38
2024-01-15T10:45:56.361Z,98966.41
2024-01-15T10:48:23.050Z,98940.56
2024-01-15T10:50:49.792Z,98952.34
2024-01-15T10:53:17.761Z,98978.00
2024-01-15T10:55:44.967Z,98984.81
2024-01-15T10:58:11.639Z,98992.00
2024-01-15T11:00:39.564Z,98974.53
2024-01-15T11:03:07.371Z,98973.91
2024-01-15T11:05:44.630Z,98980.53
2024-01-15T11:08:12.180Z,98951.69
2024-01-15T11:10:43.335Z,98978.56
2024-01-15T11:13:30.818Z,98979.59
2024-01-15T11:16:12.924Z,98965.38
2024-01-15T11:18:42.309Z,98981.00
2024-01-15T11:21:18.158Z,98976.75
2024-01-15T11:23:52.470Z,98986.16
2024-01-15T11:26:56.248Z,98986.38
2024-01-15T11:29:30.724Z,98965.69
2024-01-15T11:32:08.940Z,98989.38
2024-01-15T11:35:03.474Z,98993.75
2024-01-15T11:37:53.884Z,98986.56
2024-01-15T11:40:33.845Z,98989.75
2024-01-15T11:43:00.816Z,98970.69
2024-01-15T11:45:28.292Z,99001.75
2024-01-15T11:48:12.643Z,98996.13
2024-01-15T11:50:44.104Z,98975.66
2024-01-15T11:53:37.536Z,98995.13
2024-01-15T11:56:07.389Z,99002.94
2024-01-15T11:58:35.000Z,98982.09
2024-01-15T12:01:01.805Z,98996.34
2024-01-15T12:03:28.483Z,98994.31
2024-01-15T12:05:55.219Z,99006.53
2024-01-15T12:08:23.547Z,98982.88
2024-01-15T12:10:50.236Z,98995.09
2024-01-15T12:13:18.821Z,99017.13
2024-01-15T12:15:47.455Z,98984.88
2024-01-15T12:18:16.483Z,99018.09
2024-01-15T12:20:44.802Z,99011.88
2024-01-15T12:23:12.168Z,99014.66
2024-01-15T12:25:39.386Z,99013.19
2024-01-15T12:28:06.818Z,99031.75
2024-01-15T12:30:35.736Z,99020.56
2024-01-15T12:33:06.259Z,99025.34
2024-01-15T12:35:35.929Z,99020.69
2024-01-15T12:38:06.335Z,99001.22
2024-01-15T12:40:36.197Z,99020.50
2024-01-15T12:43:04.167Z,99026.31
2024-01-15T12:45:31.898Z,99031.88
2024-01-15T12:47:59.022Z,99026.75
2024-01-15T12:50:27.275Z,99029.56
2024-01-15T12:52:54.100Z,99035.78
2024-01-15T12:55:20.803Z,99026.38
2024-01-15T12:57:47.573Z,99018.53
2024-01-15T13:00:16.231Z,99008.31
2024-01-15T13:02:44.444Z,99036.81
2024-01-15T13:05:13.232Z,99037.03
2024-01-15T13:07:41.161Z,99053.22
2024-01-15T13:10:10.002Z,99041.22
2024-01-15T13:12:36.796Z,99032.75
2024-01-15T13:15:04.813Z,99019.31
2024-01-15T13:17:32.077Z,99043.59
2024-01-15T13:19:58.927Z,99047.84
2024-01-15T13:22:31.043Z,99047.63
2024-01-15T13:24:57.692Z,99053.63
2024-01-15T13:27:24.570Z,99041.63
2024-01-15T13:29:51.192Z,99038.53
2024-01-15T13:32:26.989Z,99036.69
2024-01-15T13:34:53.761Z,99060.56
2024-01-15T13:37:20.408Z,99050.19
2024-01-15T13:39:46.959Z,99060.75
2024-01-15T13:42:13.681Z,99060.34
2024-01-15T13:44:41.458Z,99069.94
2024-01-15T13:47:08.081Z,99054.88
2024-01-15T13:49:35.442Z,99084.31
2024-01-15T13:52:04.867Z,99088.34
2024-01-15T13:54:42.051Z,99082.31
2024-01-15T13:57:15.811Z,99077.50
2024-01-15T13:59:42.419Z,99071.50
2024-01-15T14:02:09.020Z,99093.34
2024-01-15T14:04:35.636Z,99096.16
2024-01-15T14:07:02.304Z,99100.16
2024-01-15T14:09:28.827Z,99107.34
2024-01-15T14:11:55.700Z,99119.91
2024-01-15T14:14:22.184Z,99095.22
2024-01-15T14:16:48.720Z,99117.50
2024-01-15T14:19:16.532Z,99092.00
2024-01-15T14:21:43.361Z,99124.91
2024-01-15T14:24:09.904Z,99128.50
2024-01-15T14:26:36.397Z,99132.16
2024-01-15T14:29:02.910Z,99137.34
2024-01-15T14:31:30.075Z,99123.50
2024-01-15T14:33:56.838Z,99131.09
2024-01-15T14:36:23.648Z,99134.44
2024-01-15T14:38:50.199Z,99134.22
2024-01-15T14:41:18.042Z,99121.31
2024-01-15T14:43:46.072Z,99132.75
2024-01-15T14:46:12.633Z,99148.97
2024-01-15T14:48:39.347Z,99152.97
2024-01-15T14:51:06.472Z,99161.97
2024-01-15T14:53:33.141Z,99159.72
2024-01-15T14:55:59.924Z,99138.41
2024-01-15T14:58:26.595Z,99165.38
2024-01-15T15:00:53.440Z,99174.16
2024-01-15T15:03:20.084Z,99169.31
2024-01-15T15:05:46.934Z,99175.53
2024-01-15T15:08:13.899Z,99174.34
2024-01-15T15:10:41.552Z,99174.75
2024-01-15T15:13:08.264Z,99177.97
2024-01-15T15:15:35.434Z,99165.50
2024-01-15T15:18:02.772Z,99162.66
2024-01-15T15:20:29.515Z,99178.97
2024-01-15T15:22:57.043Z,99191.59
2024-01-15T15:25:24.171Z,99167.28
2024-01-15T15:27:50.727Z,99168.22
2024-01-15T15:30:17.333Z,99194.44
2024-01-15T15:32:44.262Z,99202.81
2024-01-15T15:35:11.595Z,99177.63
2024-01-15T15:37:38.520Z,99211.19
2024-01-15T15:40:09.613Z,99208.97
2024-01-15T15:42:36.968Z,99200.81
2024-01-15T15:45:04.786Z,99214.44
2024-01-15T15:47:31.639Z,99219.63
2024-01-15T15:49:58.539Z,99220.59
2024-01-15T15:52:25.426Z,99213.97
2024-01-15T15:54:52.230Z,99213.97
2024-01-15T15:57:18.952Z,99220.78
2024-01-15T15:59:45.622Z,99204.69
2024-01-15T16:02:12.143Z,99228.81
2024-01-15T16:04:38.960Z,99230.44
2024-01-15T16:07:10.966Z,99240.47
2024-01-15T16:09:38.098Z,99232.84
2024-01-15T16:12:05.140Z,99239.66
2024-01-15T16:14:31.667Z,99238.41
2024-01-15T16:23:13.629Z,99216.88
2024-01-15T16:23:26.934Z,99236.75
2024-01-15T16:23:42.332Z,99248.38
2024-01-15T16:25:19.776Z,99250.97
2024-01-15T16:27:46.708Z,99254.56
2024-01-15T16:30:24.730Z,99249.06
2024-01-15T16:32:56.631Z,99259.88
2024-01-15T16:35:23.863Z,99269.88
2024-01-15T16:37:50.962Z,99264.59
2024-01-15T16:40:17.768Z,99239.44
2024-01-15T16:42:46.138Z,99268.81
2024-01-15T16:45:12.752Z,99264.94
2024-01-15T16:47:39.723Z,99275.88
2024-01-15T16:50:06.672Z,99279.47
2024-01-15T16:52:33.147Z,99268.66
2024-01-15T16:55:00.241Z,99260.34
2024-01-15T16:57:26.819Z,99282.31
2024-01-15T16:59:53.431Z,99279.94
2024-01-15T17:02:20.219Z,99255.78
2024-01-15T17:04:47.021Z,99290.31
2024-01-15T17:07:14.856Z,99282.16
2024-01-15T17:09:41.602Z,99268.66
2024-01-15T17:12:08.462Z,99291.25
2024-01-15T17:14:35.409Z,99302.28
2024-01-15T17:17:02.472Z,99301.00
2024-01-15T17:19:29.270Z,99298.63
2024-01-15T17:21:55.974Z,99299.34
2024-01-15T17:24:22.548Z,99305.09
2024-01-15T17:26:50.052Z,99302.50
2024-01-15T17:29:17.548Z,99314.28
2024-01-15T17:31:44.126Z,99293.63
2024-01-15T17:34:11.783Z,99308.72
2024-01-15T17:36:38.686Z,99272.25
2024-01-15T17:39:07.232Z,99299.69
2024-01-15T17:41:36.528Z,99318.22
2024-01-15T17:44:03.439Z,99299.63
2024-01-15T17:46:30.420Z,99297.56
2024-01-15T17:49:03.756Z,99327.97
2024-01-15T17:51:34.159Z,99324.94
2024-01-15T17:54:01.773Z,99322.78
2024-01-15T17:56:28.669Z,99314.22
2024-01-15T17:58:56.814Z,99306.16
2024-01-15T18:01:23.499Z,99323.88
2024-01-15T18:03:51.834Z,99326.47
2024-01-15T18:06:18.516Z,99328.91
2024-01-15T18:08:45.287Z,99345.81
2024-01-15T18:11:19.220Z,99321.81
2024-01-15T18:13:46.717Z,99357.16
2024-01-15T18:16:13.573Z,99348.66
2024-01-15T18:18:40.257Z,99349.44
2024-01-15T18:21:07.817Z,99342.66
2024-01-15T18:23:34.965Z,99369.41
2024-01-15T18:26:01.829Z,99370.69
2024-01-15T18:28:28.490Z,99374.25
2024-01-15T18:30:55.090Z,99375.41
2024-01-15T18:33:24.329Z,99335.94
2024-01-15T18:35:52.436Z,99384.97
2024-01-15T18:38:19.190Z,99384.97
2024-01-15T18:40:45.708Z,99384.53
2024-01-15T18:43:12.141Z,99388.59
2024-01-15T18:45:38.963Z,99392.50
2024-01-15T18:48:07.580Z,99393.41
2024-01-15T18:50:34.374Z,99393.28
2024-01-15T18:53:00.945Z,99402.25
2024-01-15T18:55:27.497Z,99412.34
2024-01-15T18:57:59.149Z,99419.97
2024-01-15T19:00:27.257Z,99418.69
2024-01-15T19:02:58.912Z,99422.28
2024-01-15T19:05:25.972Z,99430.06
2024-01-15T19:07:52.542Z,99398.44
2024-01-15T19:10:19.084Z,99430.13
2024-01-15T19:12:46.226Z,99423.97
2024-01-15T19:15:12.858Z,99430.69
2024-01-15T19:17:39.921Z,99443.66
2024-01-15T19:20:08.452Z,99436.53
2024-01-15T19:22:34.970Z,99456.38
2024-01-15T19:25:02.014Z,99445.28
2024-01-15T19:27:28.551Z,99455.38
2024-01-15T19:29:55.049Z,99466.09
2024-01-15T19:32:22.013Z,99463.22
2024-01-15T19:34:49.171Z,99463.22
2024-01-15T19:37:15.772Z,99443.06
2024-01-15T19:39:42.231Z,99453.88
2024-01-15T19:42:08.821Z,99447.78
2024-01-15T19:44:35.893Z,99480.38
2024-01-15T19:47:02.674Z,99485.56
2024-01-15T19:49:29.679Z,99492.09
2024-01-15T19:51:56.199Z,99505.81
2024-01-15T19:54:22.890Z,99510.91
2024-01-15T19:56:49.641Z,99529.78
2024-01-15T19:59:16.934Z,99523.09
2024-01-15T20:01:44.754Z,99525.78
2024-01-15T20:04:11.255Z,99526.34
2024-01-15T20:06:37.933Z,99508.78
2024-01-15T20:09:04.532Z,99531.78
2024-01-15T20:11:32.189Z,99532.13
2024-01-15T20:13:58.717Z,99546.81
2024-01-15T20:16:25.317Z,99551.09
2024-01-15T20:18:52.107Z,99560.78
2024-01-15T20:21:19.437Z,99569.84
2024-01-15T20:23:54.668Z,99550.78
2024-01-15T20:26:25.714Z,99575.38
2024-01-15T20:28:52.437Z,99579.59
2024-01-15T20:31:19.085Z,99588.66
2024-01-15T20:33:45.774Z,99589.63
2024-01-15T20:36:14.210Z,99574.28
2024-01-15T20:38:41.030Z,99577.38
2024-01-15T20:41:08.307Z,99588.38
2024-01-15T20:43:37.685Z,99576.06
2024-01-15T20:46:04.315Z,99598.22
2024-01-15T20:48:31.409Z,99602.44
2024-01-15T20:50:59.115Z,99597.91
2024-01-15T20:53:26.375Z,99601.28
2024-01-15T20:55:52.960Z,99600.63
2024-01-15T20:58:23.839Z,99614.91
2024-01-15T21:00:51.080Z,99616.63
2024-01-15T21:03:19.566Z,99621.97
2024-01-15T21:05:46.538Z,99624.22
2024-01-15T21:08:13.615Z,99622.75
2024-01-15T21:10:41.398Z,99624.66
2024-01-15T21:13:08.335Z,99631.00
2024-01-15T21:15:35.375Z,99603.81
2024-01-15T21:18:03.713Z,99633.09
2024-01-15T21:20:31.164Z,99627.75
2024-01-15T21:22:57.700Z,99630.34
2024-01-15T21:25:24.192Z,99632.66
2024-01-15T21:27:50.807Z,99637.47
2024-01-15T21:30:17.290Z,99634.16
2024-01-15T21:32:44.069Z,99649.47
2024-01-15T21:35:13.280Z,99650.94
2024-01-15T21:37:41.533Z,99626.19
2024-01-15T21:40:10.825Z,99650.13
2024-01-15T21:42:38.368Z,99618.72
2024-01-15T21:45:08.142Z,99645.88
2024-01-15T21:47:36.849Z,99644.91
2024-01-15T21:50:09.936Z,99652.69
2024-01-15T21:52:36.725Z,99654.66
2024-01-15T21:55:03.704Z,99631.31
2024-01-15T21:57:32.417Z,99659.50
2024-01-15T22:00:01.514Z,99663.34
2024-01-15T22:02:30.623Z,99662.38
2024-01-15T22:04:57.684Z,99661.13
2024-01-15T22:07:24.119Z,99656.28
2024-01-15T22:09:50.634Z,99663.59
2024-01-15T22:12:17.147Z,99641.44
2024-01-15T22:14:43.797Z,99659.53
2024-01-15T22:17:10.377Z,99665.38
2024-01-15T22:19:37.036Z,99668.63
2024-01-15T22:22:04.012Z,99674.94
2024-01-15T22:24:30.553Z,99671.19
2024-01-15T22:26:57.092Z,99683.66
2024-01-15T22:29:24.362Z,99683.34
2024-01-15T22:31:50.859Z,99673.63
2024-01-15T22:34:18.781Z,99673.63
2024-01-15T22:36:45.418Z,99680.28
2024-01-15T22:39:12.206Z,99671.19
2024-01-15T22:41:38.786Z,99674.59
2024-01-15T22:44:05.608Z,99660.81
2024-01-15T22:46:32.189Z,99669.88
2024-01-15T22:48:58.720Z,99672.47
2024-01-15T22:51:25.518Z,99654.69
2024-01-15T22:53:54.773Z,99680.91
2024-01-15T22:56:22.003Z,99681.19
2024-01-15T22:58:48.937Z,99676.66
2024-01-15T23:01:15.562Z,99682.03
2024-01-15T23:03:42.099Z,99684.78
2024-01-15T23:06:19.742Z,99690.75
2024-01-15T23:08:46.838Z,99687.97
2024-01-15T23:11:13.734Z,99665.84
2024-01-15T23:13:43.648Z,99675.88
2024-01-15T23:16:14.376Z,99669.91
2024-01-15T23:18:42.387Z,99697.09
2024-01-15T23:21:09.896Z,99698.88
2024-01-15T23:23:37.075Z,99700.00
2024-01-15T23:26:04.048Z,99705.69
2024-01-15T23:28:32.226Z,99718.19
2024-01-15T23:30:58.804Z,99704.44
2024-01-15T23:33:25.353Z,99716.75
2024-01-15T23:35:54.373Z,99693.59
2024-01-15T23:38:23.246Z,99705.41
2024-01-15T23:40:49.725Z,99688.44
2024-01-15T23:43:16.316Z,99717.91
2024-01-15T23:45:42.872Z,99713.06
2024-01-15T23:48:09.470Z,99697.69
2024-01-15T23:50:36.030Z,99725.50
2024-01-15T23:53:02.549Z,99697.34
2024-01-15T23:55:29.158Z,99728.28
2024-01-15T23:57:56.222Z,99693.13
